createdAt,value
2018-12-22T00:01:42.973Z,99550.98
2018-12-22T00:04:10.576Z,99541.76
2018-12-22T00:06:38.187Z,99539.80
2018-12-22T00:09:06.482Z,99554.83
2018-12-22T00:11:34.181Z,99566.22
2018-12-22T00:14:01.794Z,99565.44
2018-12-22T00:16:30.338Z,99566.17
2018-12-22T00:18:58.879Z,99564.03
2018-12-22T00:21:26.497Z,99577.24
2018-12-22T00:23:54.847Z,99572.92
2018-12-22T00:26:24.549Z,99582.80
2018-12-22T00:28:52.164Z,99565.18
2018-12-22T00:31:20.242Z,99572.36
2018-12-22T00:33:47.863Z,99576.15
2018-12-22T00:36:15.534Z,99562.44
2018-12-22T00:38:43.977Z,99570.86
2018-12-22T00:41:12.435Z,99561.49
2018-12-22T00:43:40.981Z,99563.26
2018-12-22T00:46:08.635Z,99572.91
2018-12-22T00:48:36.303Z,99573.74
2018-12-22T00:51:03.916Z,99587.81
2018-12-22T00:53:31.543Z,99583.92
2018-12-22T00:55:59.954Z,99574.37
2018-12-22T00:58:30.783Z,99587.61
2018-12-22T01:00:57.249Z,99600.07
2018-12-22T01:03:24.880Z,99585.77
2018-12-22T01:05:52.521Z,99591.48
2018-12-22T01:08:20.135Z,99597.02
2018-12-22T01:10:47.844Z,99600.69
2018-12-22T01:13:15.505Z,99592.99
2018-12-22T01:15:44.004Z,99604.83
2018-12-22T01:18:11.620Z,99609.09
2018-12-22T01:20:39.822Z,99615.59
2018-12-22T01:23:07.437Z,99610.39
2018-12-22T01:25:35.067Z,99639.72
2018-12-22T01:28:02.690Z,99639.58
2018-12-22T01:30:31.327Z,99646.10
2018-12-22T01:32:59.771Z,99644.09
2018-12-22T01:35:27.394Z,99640.38
2018-12-22T01:37:56.947Z,99650.28
2018-12-22T01:40:25.421Z,99653.48
2018-12-22T01:42:53.032Z,99650.70
2018-12-22T01:45:20.660Z,99664.80
2018-12-22T01:47:49.226Z,99669.22
2018-12-22T01:50:16.840Z,99667.55
2018-12-22T01:52:45.248Z,99662.36
2018-12-22T01:55:13.615Z,99674.97
2018-12-22T01:57:42.181Z,99669.69
2018-12-22T02:00:10.629Z,99676.57
2018-12-22T02:02:39.051Z,99680.19
2018-12-22T02:05:07.609Z,99675.44
2018-12-22T02:07:36.160Z,99686.56
2018-12-22T02:10:05.759Z,99684.43
2018-12-22T02:12:33.378Z,99690.22
2018-12-22T02:15:01.988Z,99698.36
2018-12-22T02:17:30.516Z,99700.64
2018-12-22T02:19:59.017Z,99690.50
2018-12-22T02:22:27.430Z,99695.00
2018-12-22T02:24:57.137Z,99688.70
2018-12-22T02:27:25.257Z,99692.52
2018-12-22T02:29:52.921Z,99697.64
2018-12-22T02:32:20.578Z,99704.80
2018-12-22T02:34:49.126Z,99708.97
2018-12-22T02:37:16.775Z,99707.44
2018-12-22T02:39:44.388Z,99718.45
2018-12-22T02:42:12.002Z,99725.98
2018-12-22T02:44:39.665Z,99730.22
2018-12-22T02:47:08.211Z,99731.20
2018-12-22T02:49:35.836Z,99730.27
2018-12-22T02:52:03.457Z,99726.67
2018-12-22T02:54:32.058Z,99737.09
2018-12-22T02:56:59.687Z,99741.28
2018-12-22T02:59:27.324Z,99726.91
2018-12-22T03:01:54.937Z,99736.18
2018-12-22T03:04:24.425Z,99744.84
2018-12-22T03:06:52.045Z,99748.27
2018-12-22T03:09:20.604Z,99756.66
2018-12-22T03:11:49.009Z,99753.28
2018-12-22T03:14:17.600Z,99755.83
2018-12-22T03:16:45.233Z,99752.58
2018-12-22T03:19:13.810Z,99753.02
2018-12-22T03:21:42.371Z,99745.88
2018-12-22T03:24:10.833Z,99754.89
2018-12-22T03:26:39.288Z,99757.02
2018-12-22T03:29:15.284Z,99759.77
2018-12-22T03:31:37.724Z,99766.34
2018-12-22T03:34:06.303Z,99766.58
2018-12-22T03:36:34.696Z,99758.67
2018-12-22T03:39:02.317Z,99770.04
2018-12-22T03:41:31.075Z,99773.58
2018-12-22T03:43:59.543Z,99766.17
2018-12-22T03:46:28.115Z,99768.68
2018-12-22T03:48:57.025Z,99769.97
2018-12-22T03:51:26.263Z,99763.88
2018-12-22T03:53:53.877Z,99779.86
2018-12-22T03:56:21.515Z,99770.54
2018-12-22T03:58:49.135Z,99773.80
2018-12-22T04:01:16.765Z,99769.76
2018-12-22T04:03:44.385Z,99778.78
2018-12-22T04:06:12.012Z,99782.95
2018-12-22T04:08:39.628Z,99779.75
2018-12-22T04:11:08.211Z,99791.34
2018-12-22T04:13:35.825Z,99793.25
2018-12-22T04:16:04.394Z,99791.66
2018-12-22T04:18:32.012Z,99804.50
2018-12-22T04:20:59.627Z,99788.70
2018-12-22T04:23:28.164Z,99797.80
2018-12-22T04:25:56.512Z,99800.74
2018-12-22T04:28:24.968Z,99794.72
2018-12-22T04:30:52.595Z,99806.98
2018-12-22T04:33:21.141Z,99807.69
2018-12-22T04:35:48.803Z,99796.06
2018-12-22T04:38:16.424Z,99809.91
2018-12-22T04:40:44.037Z,99805.91
2018-12-22T04:43:12.689Z,99810.30
2018-12-22T04:45:41.135Z,99811.01
2018-12-22T04:48:09.777Z,99817.66
2018-12-22T04:50:37.406Z,99813.90
2018-12-22T04:53:05.025Z,99815.20
2018-12-22T04:55:32.770Z,99821.47
2018-12-22T04:58:01.191Z,99826.48
2018-12-22T05:00:29.614Z,99820.27
2018-12-22T05:02:57.243Z,99823.78
2018-12-22T05:05:26.937Z,99840.34
2018-12-22T05:07:55.550Z,99835.58
2018-12-22T05:10:25.267Z,99839.88
2018-12-22T05:12:53.912Z,99836.74
2018-12-22T05:15:22.334Z,99841.09
2018-12-22T05:17:50.871Z,99845.06
2018-12-22T05:20:19.449Z,99847.70
2018-12-22T05:22:48.011Z,99841.77
2018-12-22T05:25:15.669Z,99855.19
2018-12-22T05:27:43.290Z,99847.08
2018-12-22T05:30:11.782Z,99846.41
2018-12-22T05:32:40.205Z,99858.23
2018-12-22T05:35:08.789Z,99855.89
2018-12-22T05:37:36.455Z,99864.00
2018-12-22T05:40:05.649Z,99855.39
2018-12-22T05:42:33.268Z,99852.02
2018-12-22T05:45:00.889Z,99862.96
2018-12-22T05:47:28.511Z,99858.08
2018-12-22T05:49:57.005Z,99855.77
2018-12-22T05:52:25.145Z,99862.63
2018-12-22T05:54:52.760Z,99857.06
2018-12-22T05:57:21.225Z,99849.13
2018-12-22T05:59:48.878Z,99853.88
2018-12-22T06:02:17.463Z,99857.61
2018-12-22T06:04:46.020Z,99867.72
2018-12-22T06:07:14.583Z,99866.30
2018-12-22T06:09:43.147Z,99871.28
2018-12-22T06:12:11.679Z,99878.87
2018-12-22T06:14:40.285Z,99874.53
2018-12-22T06:17:07.942Z,99869.89
2018-12-22T06:19:36.360Z,99862.88
2018-12-22T06:22:04.783Z,99872.53
2018-12-22T06:24:33.191Z,99862.91
2018-12-22T06:27:00.809Z,99864.78
2018-12-22T06:29:29.373Z,99867.78
2018-12-22T06:31:57.837Z,99872.25
2018-12-22T06:34:26.369Z,99872.82
2018-12-22T06:36:54.723Z,99871.80
2018-12-22T06:39:23.122Z,99879.83
2018-12-22T06:41:51.709Z,99879.09
2018-12-22T06:44:19.364Z,99887.71
2018-12-22T06:46:47.772Z,99892.89
2018-12-22T06:49:15.428Z,99895.73
2018-12-22T06:51:43.869Z,99899.64
2018-12-22T06:54:11.493Z,99903.14
2018-12-22T06:56:39.903Z,99899.38
2018-12-22T06:59:08.337Z,99913.19
2018-12-22T07:01:36.763Z,99903.22
2018-12-22T07:04:05.177Z,99917.39
2018-12-22T07:06:32.795Z,99917.39
2018-12-22T07:09:00.402Z,99916.48
2018-12-22T07:11:28.001Z,99918.57
2018-12-22T07:13:56.321Z,99933.05
2018-12-22T07:16:24.725Z,99931.33
2018-12-22T07:18:52.344Z,99928.20
2018-12-22T07:21:19.979Z,99934.81
2018-12-22T07:23:47.609Z,99926.39
2018-12-22T07:26:15.289Z,99929.48
2018-12-22T07:28:42.908Z,99930.33
2018-12-22T07:31:10.525Z,99933.31
2018-12-22T07:33:38.147Z,99943.68
2018-12-22T07:36:05.782Z,99931.06
2018-12-22T07:38:33.402Z,99939.08
2018-12-22T07:41:01.012Z,99939.46
2018-12-22T07:43:28.634Z,99940.75
2018-12-22T07:45:57.170Z,99939.92
2018-12-22T07:48:24.863Z,99938.09
2018-12-22T07:50:52.490Z,99946.39
2018-12-22T07:53:20.103Z,99948.59
2018-12-22T07:55:47.729Z,99950.73
2018-12-22T07:58:15.324Z,99954.34
2018-12-22T08:00:42.938Z,99959.68
2018-12-22T08:03:10.558Z,99955.45
2018-12-22T08:05:39.011Z,99959.98
2018-12-22T08:08:06.857Z,99962.66
2018-12-22T08:10:34.503Z,99963.48
2018-12-22T08:13:02.981Z,99962.46
2018-12-22T08:15:30.610Z,99959.68
2018-12-22T08:17:58.220Z,99966.20
2018-12-22T08:20:26.578Z,99968.36
2018-12-22T08:22:54.947Z,99966.92
2018-12-22T08:25:22.652Z,99961.28
2018-12-22T08:27:50.271Z,99980.89
2018-12-22T08:30:17.964Z,99974.77
2018-12-22T08:32:45.577Z,99980.86
2018-12-22T08:35:13.196Z,99985.58
2018-12-22T08:37:40.816Z,99995.18
2018-12-22T08:40:10.187Z,100004.06
2018-12-22T08:42:37.908Z,100016.63
2018-12-22T08:45:06.994Z,100013.51
2018-12-22T08:47:34.600Z,100015.45
2018-12-22T08:50:08.932Z,100018.95
2018-12-22T08:52:32.929Z,100024.78
2018-12-22T08:55:00.551Z,100030.69
2018-12-22T08:57:28.181Z,100033.47
2018-12-22T08:59:56.763Z,100029.97
2018-12-22T09:02:24.532Z,100032.03
2018-12-22T09:04:52.159Z,100036.18
2018-12-22T09:07:19.784Z,100028.79
2018-12-22T09:09:47.410Z,100043.77
2018-12-22T09:12:15.074Z,100046.05
2018-12-22T09:14:43.640Z,100038.16
2018-12-22T09:17:11.309Z,100037.63
2018-12-22T09:19:38.951Z,100034.69
2018-12-22T09:22:06.578Z,100041.97
2018-12-22T09:24:34.207Z,100047.16
2018-12-22T09:27:01.834Z,100050.13
2018-12-22T09:29:29.455Z,100048.56
2018-12-22T09:31:57.080Z,100052.64
2018-12-22T09:34:25.270Z,100050.36
2018-12-22T09:36:53.993Z,100057.28
2018-12-22T09:39:21.664Z,100052.30
2018-12-22T09:41:50.078Z,100058.13
2018-12-22T09:44:17.707Z,100057.93
2018-12-22T09:46:45.684Z,100066.47
2018-12-22T09:49:13.314Z,100066.28
2018-12-22T09:51:40.938Z,100060.41
2018-12-22T09:54:08.558Z,100062.83
2018-12-22T09:56:36.174Z,100066.66
2018-12-22T09:59:03.808Z,100062.57
2018-12-22T10:01:31.433Z,100060.16
2018-12-22T10:03:59.047Z,100072.82
2018-12-22T10:06:26.685Z,100077.74
2018-12-22T10:08:55.053Z,100075.72
2018-12-22T10:11:22.674Z,100080.32
2018-12-22T10:13:50.317Z,100081.96
2018-12-22T10:16:17.950Z,100083.11
2018-12-22T10:18:45.750Z,100089.02
2018-12-22T10:21:13.415Z,100098.67
2018-12-22T10:23:41.046Z,100096.27
2018-12-22T10:26:08.859Z,100101.72
2018-12-22T10:28:36.529Z,100110.31
2018-12-22T10:31:04.145Z,100109.19
2018-12-22T10:33:32.550Z,100108.84
2018-12-22T10:36:00.170Z,100114.77
2018-12-22T10:38:27.798Z,100124.19
2018-12-22T10:40:55.871Z,100123.61
2018-12-22T10:43:25.197Z,100121.70
2018-12-22T10:45:52.833Z,100124.47
2018-12-22T10:48:20.461Z,100130.03
2018-12-22T10:50:48.090Z,100129.70
2018-12-22T10:53:16.501Z,100136.60
2018-12-22T10:55:44.145Z,100134.11
2018-12-22T10:58:11.785Z,100137.47
2018-12-22T11:00:39.405Z,100160.38
2018-12-22T11:03:07.249Z,100168.11
2018-12-22T11:05:34.925Z,100160.20
2018-12-22T11:08:02.621Z,100167.34
2018-12-22T11:10:30.277Z,100172.69
2018-12-22T11:12:58.039Z,100188.47
2018-12-22T11:15:26.556Z,100188.97
2018-12-22T11:17:55.103Z,100185.29
2018-12-22T11:20:22.893Z,100190.14
2018-12-22T11:22:50.518Z,100195.19
2018-12-22T11:25:18.228Z,100211.20
2018-12-22T11:27:45.846Z,100210.08
2018-12-22T11:30:16.843Z,100212.86
2018-12-22T11:32:44.546Z,100211.34
2018-12-22T11:35:12.207Z,100221.14
2018-12-22T11:37:39.837Z,100219.07
2018-12-22T11:40:09.318Z,100223.44
2018-12-22T11:42:37.016Z,100242.66
2018-12-22T11:45:07.314Z,100245.66
2018-12-22T11:47:38.198Z,100245.66
2018-12-22T11:50:13.515Z,100251.52
2018-12-22T11:52:41.139Z,100253.03
2018-12-22T11:55:08.919Z,100264.01
2018-12-22T11:57:36.533Z,100260.81
2018-12-22T12:00:05.914Z,100268.05
2018-12-22T12:02:33.539Z,100269.25
2018-12-22T12:05:01.164Z,100275.98
2018-12-22T12:07:29.579Z,100284.37
2018-12-22T12:09:58.134Z,100280.48
2018-12-22T12:12:26.688Z,100290.64
2018-12-22T12:14:55.922Z,100293.50
2018-12-22T12:17:28.308Z,100299.02
2018-12-22T12:19:57.799Z,100298.85
2018-12-22T12:22:26.329Z,100313.62
2018-12-22T12:24:54.911Z,100311.32
2018-12-22T12:27:22.528Z,100322.66
2018-12-22T12:29:50.968Z,100326.64
2018-12-22T12:32:18.581Z,100337.45
2018-12-22T12:34:46.192Z,100344.63
2018-12-22T12:37:13.809Z,100353.68
2018-12-22T12:39:42.344Z,100345.14
2018-12-22T12:42:10.122Z,100354.89
2018-12-22T12:44:39.723Z,100359.53
2018-12-22T12:47:08.287Z,100357.94
2018-12-22T12:49:36.841Z,100360.16
2018-12-22T12:52:06.229Z,100368.28
2018-12-22T12:54:34.767Z,100386.48
2018-12-22T12:57:03.260Z,100393.01
2018-12-22T12:59:31.921Z,100401.98
2018-12-22T13:02:01.323Z,100402.70
2018-12-22T13:04:30.180Z,100423.13
2018-12-22T13:06:57.928Z,100427.54
2018-12-22T13:09:26.655Z,100434.41
2018-12-22T13:11:56.129Z,100443.91
2018-12-22T13:14:23.815Z,100442.22
2018-12-22T13:16:51.434Z,100445.56
2018-12-22T13:19:20.001Z,100456.36
2018-12-22T13:21:48.465Z,100477.17
2018-12-22T13:24:16.167Z,100480.64
2018-12-22T13:26:46.675Z,100491.13
2018-12-22T13:29:15.253Z,100495.06
2018-12-22T13:31:42.923Z,100489.77
2018-12-22T13:34:10.546Z,100494.30
2018-12-22T13:36:39.186Z,100504.47
2018-12-22T13:39:07.821Z,100506.53
2018-12-22T13:41:36.861Z,100508.19
2018-12-22T13:44:05.483Z,100517.84
2018-12-22T13:46:33.893Z,100526.78
2018-12-22T13:49:01.785Z,100533.88
2018-12-22T13:51:29.498Z,100541.84
2018-12-22T13:53:57.188Z,100546.94
2018-12-22T13:56:25.367Z,100546.56
2018-12-22T13:58:53.060Z,100554.50
2018-12-22T14:01:20.671Z,100566.75
2018-12-22T14:03:49.067Z,100577.20
2018-12-22T14:06:16.685Z,100576.88
2018-12-22T14:08:44.344Z,100580.88
2018-12-22T14:11:11.988Z,100590.72
2018-12-22T14:13:40.641Z,100593.58
2018-12-22T14:16:10.180Z,100597.95
2018-12-22T14:18:41.489Z,100606.37
2018-12-22T14:21:09.376Z,100601.53
2018-12-22T14:23:49.566Z,100612.27
2018-12-22T14:26:17.224Z,100618.45
2018-12-22T14:28:45.646Z,100610.30
2018-12-22T14:31:13.260Z,100614.97
2018-12-22T14:33:41.342Z,100625.14
2018-12-22T14:36:09.479Z,100635.61
2018-12-22T14:38:37.102Z,100637.00
2018-12-22T14:41:04.714Z,100648.33
2018-12-22T14:43:33.142Z,100662.34
2018-12-22T14:46:01.718Z,100669.68
2018-12-22T14:48:29.331Z,100665.09
2018-12-22T14:50:56.985Z,100675.03
2018-12-22T14:53:26.417Z,100682.84
2018-12-22T14:55:55.432Z,100693.12
2018-12-22T14:58:24.701Z,100698.80
2018-12-22T15:00:53.153Z,100704.66
2018-12-22T15:03:21.694Z,100703.41
2018-12-22T15:05:50.202Z,100707.75
2018-12-22T15:08:17.823Z,100704.87
2018-12-22T15:10:45.558Z,100722.16
2018-12-22T15:13:13.198Z,100719.83
2018-12-22T15:15:40.810Z,100733.41
2018-12-22T15:18:08.426Z,100736.34
2018-12-22T15:20:36.048Z,100745.44
2018-12-22T15:23:05.230Z,100743.30
2018-12-22T15:25:32.853Z,100750.06
2018-12-22T15:28:00.471Z,100752.24
2018-12-22T15:30:28.096Z,100763.32
2018-12-22T15:32:56.492Z,100771.52
2018-12-22T15:35:24.833Z,100768.16
2018-12-22T15:37:52.450Z,100771.28
2018-12-22T15:40:20.112Z,100781.12
2018-12-22T15:42:48.531Z,100782.11
2018-12-22T15:45:17.393Z,100786.09
2018-12-22T15:47:46.017Z,100790.76
2018-12-22T15:50:17.744Z,100795.59
2018-12-22T15:52:46.272Z,100799.55
2018-12-22T15:55:13.984Z,100802.09
2018-12-22T15:57:42.424Z,100803.06
2018-12-22T16:00:12.866Z,100803.52
2018-12-22T16:02:40.522Z,100799.34
2018-12-22T16:05:10.939Z,100803.11
2018-12-22T16:07:42.322Z,100796.54
2018-12-22T16:10:13.346Z,100806.39
2018-12-22T16:12:40.958Z,100807.28
2018-12-22T16:15:11.776Z,100808.95
2018-12-22T16:17:39.403Z,100806.92
2018-12-22T16:20:10.485Z,100795.77
2018-12-22T16:22:39.267Z,100807.27
2018-12-22T16:25:11.550Z,100806.33
2018-12-22T16:27:40.927Z,100804.66
2018-12-22T16:30:20.765Z,100805.00
2018-12-22T16:32:48.399Z,100800.36
2018-12-22T16:35:16.018Z,100799.34
2018-12-22T16:37:43.652Z,100810.76
2018-12-22T16:40:12.944Z,100813.30
2018-12-22T16:42:40.950Z,100811.20
2018-12-22T16:45:14.846Z,100827.25
2018-12-22T16:47:43.623Z,100820.34
2018-12-22T16:50:13.913Z,100817.06
2018-12-22T16:52:41.537Z,100819.85
2018-12-22T16:55:15.052Z,100816.66
2018-12-22T16:57:58.477Z,100819.68
2018-12-22T17:00:33.954Z,100823.47
2018-12-22T17:03:10.403Z,100820.51
2018-12-22T17:05:31.403Z,100823.53
2018-12-22T17:07:59.024Z,100828.76
2018-12-22T17:10:27.215Z,100830.59
2018-12-22T17:12:55.844Z,100826.13
2018-12-22T17:15:24.798Z,100823.44
2018-12-22T17:17:52.532Z,100828.98
2018-12-22T17:20:20.161Z,100834.95
2018-12-22T17:23:00.579Z,100832.42
2018-12-22T17:25:28.952Z,100839.83
2018-12-22T17:27:56.605Z,100844.19
2018-12-22T17:30:25.003Z,100842.41
2018-12-22T17:32:52.733Z,100849.07
2018-12-22T17:35:20.414Z,100853.28
2018-12-22T17:37:49.290Z,100857.83
2018-12-22T17:40:16.984Z,100862.33
2018-12-22T17:42:45.580Z,100868.16
2018-12-22T17:45:14.232Z,100868.59
2018-12-22T17:47:41.843Z,100873.97
2018-12-22T17:50:10.126Z,100865.47
2018-12-22T17:52:37.778Z,100868.99
2018-12-22T17:55:08.796Z,100870.23
2018-12-22T17:57:36.422Z,100871.92
2018-12-22T18:00:12.141Z,100868.48
2018-12-22T18:02:42.137Z,100871.03
2018-12-22T18:05:09.767Z,100874.75
2018-12-22T18:07:37.446Z,100876.00
2018-12-22T18:10:13.668Z,100870.47
2018-12-22T18:12:41.326Z,100876.33
2018-12-22T18:15:23.426Z,100874.95
2018-12-22T18:17:51.112Z,100875.74
2018-12-22T18:20:18.728Z,100878.55
2018-12-22T18:22:46.393Z,100876.85
2018-12-22T18:25:19.275Z,100869.20
2018-12-22T18:27:49.188Z,100869.23
2018-12-22T18:30:18.111Z,100881.52
2018-12-22T18:32:46.516Z,100881.45
2018-12-22T18:35:15.097Z,100885.05
2018-12-22T18:37:42.724Z,100883.41
2018-12-22T18:40:14.693Z,100881.92
2018-12-22T18:42:42.893Z,100884.50
2018-12-22T18:45:11.813Z,100888.81
2018-12-22T18:47:40.608Z,100894.63
2018-12-22T18:50:14.932Z,100899.03
2018-12-22T18:52:42.584Z,100896.41
2018-12-22T18:55:10.292Z,100903.80
2018-12-22T18:57:38.309Z,100902.46
2018-12-22T19:00:11.762Z,100901.48
2018-12-22T19:02:39.544Z,100896.39
2018-12-22T19:05:08.443Z,100900.45
2018-12-22T19:07:36.062Z,100904.64
2018-12-22T19:10:07.477Z,100905.61
2018-12-22T19:12:35.102Z,100900.77
2018-12-22T19:15:02.711Z,100906.78
2018-12-22T19:17:30.334Z,100909.81
2018-12-22T19:19:57.945Z,100905.61
2018-12-22T19:22:26.120Z,100912.22
2018-12-22T19:24:53.883Z,100904.81
2018-12-22T19:27:21.511Z,100909.05
2018-12-22T19:29:50.105Z,100909.28
2018-12-22T19:32:18.603Z,100911.98
2018-12-22T19:34:46.221Z,100910.92
2018-12-22T19:37:13.847Z,100912.39
2018-12-22T19:39:41.501Z,100915.42
2018-12-22T19:42:09.141Z,100925.58
2018-12-22T19:44:36.775Z,100919.86
2018-12-22T19:47:04.410Z,100917.11
2018-12-22T19:49:32.036Z,100922.72
2018-12-22T19:51:59.659Z,100921.91
2018-12-22T19:54:27.284Z,100932.23
2018-12-22T19:56:55.031Z,100925.53
2018-12-22T19:59:24.600Z,100925.38
2018-12-22T20:01:52.249Z,100925.53
2018-12-22T20:04:19.859Z,100918.19
2018-12-22T20:06:47.498Z,100925.98
2018-12-22T20:09:15.118Z,100930.66
2018-12-22T20:11:42.735Z,100926.27
2018-12-22T20:14:10.356Z,100928.97
2018-12-22T20:16:37.988Z,100929.96
2018-12-22T20:19:05.629Z,100930.04
2018-12-22T20:21:33.263Z,100925.39
2018-12-22T20:24:00.892Z,100917.09
2018-12-22T20:26:28.505Z,100921.47
2018-12-22T20:28:56.179Z,100919.33
2018-12-22T20:31:23.900Z,100926.35
2018-12-22T20:33:51.551Z,100927.32
2018-12-22T20:36:19.173Z,100925.82
2018-12-22T20:38:46.793Z,100928.85
2018-12-22T20:41:14.435Z,100931.67
2018-12-22T20:43:42.044Z,100927.64
2018-12-22T20:46:09.666Z,100931.80
2018-12-22T20:48:37.757Z,100931.09
2018-12-22T20:51:05.373Z,100931.84
2018-12-22T20:53:33.012Z,100936.52
2018-12-22T20:56:00.624Z,100949.31
2018-12-22T20:58:28.279Z,100955.60
2018-12-22T21:00:56.338Z,100948.66
2018-12-22T21:03:41.854Z,100944.06
2018-12-22T21:06:15.381Z,100949.61
2018-12-22T21:08:43.006Z,100954.77
2018-12-22T21:11:11.686Z,100955.69
2018-12-22T21:13:39.322Z,100957.20
2018-12-22T21:16:06.952Z,100956.57
2018-12-22T21:18:35.564Z,100955.47
2018-12-22T21:21:04.098Z,100960.00
2018-12-22T21:23:31.727Z,100957.62
2018-12-22T21:26:00.252Z,100960.77
2018-12-22T21:28:27.885Z,100959.80
2018-12-22T21:30:56.472Z,100967.45
2018-12-22T21:33:25.038Z,100972.91
2018-12-22T21:35:54.607Z,100968.96
2018-12-22T21:38:22.259Z,100958.05
2018-12-22T21:40:50.165Z,100958.50
2018-12-22T21:43:18.027Z,100969.64
2018-12-22T21:45:45.646Z,100971.38
2018-12-22T21:48:14.231Z,100976.39
2018-12-22T21:50:41.848Z,100977.52
2018-12-22T21:53:10.270Z,100988.01
2018-12-22T21:55:37.933Z,100989.70
2018-12-22T21:58:06.521Z,100992.38
2018-12-22T22:00:34.159Z,100994.70
2018-12-22T22:03:02.691Z,101000.93
2018-12-22T22:05:30.323Z,100994.82
2018-12-22T22:07:58.759Z,100997.00
2018-12-22T22:10:27.326Z,101003.82
2018-12-22T22:12:54.998Z,100999.36
2018-12-22T22:15:22.609Z,100996.55
2018-12-22T22:17:50.231Z,100995.92
2018-12-22T22:20:17.930Z,101001.31
2018-12-22T22:22:45.543Z,100996.55
2018-12-22T22:25:13.182Z,100999.43
2018-12-22T22:27:40.804Z,100998.83
2018-12-22T22:30:09.261Z,100998.30
2018-12-22T22:32:36.875Z,100997.91
2018-12-22T22:35:04.668Z,101005.77
2018-12-22T22:37:32.284Z,101004.00
2018-12-22T22:40:00.753Z,101008.06
2018-12-22T22:42:28.379Z,101010.13
2018-12-22T22:44:56.011Z,101008.06
2018-12-22T22:47:23.955Z,101006.87
2018-12-22T22:49:52.378Z,101020.83
2018-12-22T22:52:19.999Z,101029.65
2018-12-22T22:54:48.414Z,101025.97
2018-12-22T22:57:16.953Z,101041.97
2018-12-22T22:59:44.583Z,101050.61
2018-12-22T23:02:13.024Z,101041.15
2018-12-22T23:04:40.823Z,101044.28
2018-12-22T23:07:08.488Z,101034.40
2018-12-22T23:09:36.972Z,101043.43
2018-12-22T23:12:04.595Z,101041.88
2018-12-22T23:14:32.407Z,101047.70
2018-12-22T23:17:00.220Z,101052.61
2018-12-22T23:19:28.026Z,101053.20
2018-12-22T23:21:56.660Z,101058.45
2018-12-22T23:24:25.164Z,101065.80
2018-12-22T23:26:53.790Z,101066.61
2018-12-22T23:29:22.284Z,101077.34
2018-12-22T23:31:50.074Z,101067.52
2018-12-22T23:34:17.872Z,101084.47
2018-12-22T23:36:45.775Z,101082.13
2018-12-22T23:39:14.438Z,101096.00
2018-12-22T23:41:42.087Z,101099.75
2018-12-22T23:44:10.798Z,101104.35
2018-12-22T23:46:38.476Z,101107.46
2018-12-22T23:49:06.194Z,101113.33
2018-12-22T23:51:34.801Z,101117.14
2018-12-22T23:54:03.111Z,101117.14
2018-12-22T23:56:31.818Z,101124.34
2018-12-22T23:58:59.610Z,101125.92
